sensor_id;sensor_type;location;lat;lon;timestamp;pressure;altitude;pressure_sealevel;temperature;humidity
12146;BME280;6136;47.032;15.398;2022-08-19T00:02:20;96941.22;;;19.64;nan
12146;BME280;6136;47.032;15.398;2022-08-19T00:04:48;96948.81;;;19.60;nan
12146;BME280;6136;47.032;15.398;2022-08-19T00:07:19;96956.69;;;19.54;nan
12146;BME280;6136;47.032;15.398;2022-08-19T00:09:47;96961.25;;;19.61;nan
12146;BME280;6136;47.032;15.398;2022-08-19T00:12:17;96971.63;;;19.56;nan
12146;BME280;6136;47.032;15.398;2022-08-19T00:14:45;96974.34;;;19.64;nan
12146;BME280;6136;47.032;15.398;2022-08-19T00:17:13;96988.16;;;19.77;nan
12146;BME280;6136;47.032;15.398;2022-08-19T00:19:42;96986.78;;;19.82;nan
12146;BME280;6136;47.032;15.398;2022-08-19T00:22:10;96981.09;;;19.85;nan
12146;BME280;6136;47.032;15.398;2022-08-19T00:24:38;96975.84;;;19.51;nan
12146;BME280;6136;47.032;15.398;2022-08-19T00:27:07;96967.56;;;19.44;nan
12146;BME280;6136;47.032;15.398;2022-08-19T00:29:53;96963.84;;;19.37;nan
12146;BME280;6136;47.032;15.398;2022-08-19T00:32:21;96981.84;;;19.45;nan
12146;BME280;6136;47.032;15.398;2022-08-19T00:34:49;96966.50;;;19.29;nan
12146;BME280;6136;47.032;15.398;2022-08-19T00:37:20;96978.88;;;19.14;nan
12146;BME280;6136;47.032;15.398;2022-08-19T00:39:49;96966.44;;;19.05;nan
12146;BME280;6136;47.032;15.398;2022-08-19T00:42:19;96985.69;;;18.92;nan
12146;BME280;6136;47.032;15.398;2022-08-19T00:44:48;96992.06;;;18.91;nan
12146;BME280;6136;47.032;15.398;2022-08-19T00:47:18;96995.75;;;18.90;nan
12146;BME280;6136;47.032;15.398;2022-08-19T00:49:49;96993.25;;;18.88;nan
12146;BME280;6136;47.032;15.398;2022-08-19T00:52:22;96998.63;;;18.88;nan
12146;BME280;6136;47.032;15.398;2022-08-19T00:54:51;97003.28;;;18.86;nan
12146;BME280;6136;47.032;15.398;2022-08-19T00:57:25;96997.56;;;18.81;nan
12146;BME280;6136;47.032;15.398;2022-08-19T00:59:56;96999.56;;;18.79;nan
12146;BME280;6136;47.032;15.398;2022-08-19T01:02:30;97009.47;;;18.79;nan
12146;BME280;6136;47.032;15.398;2022-08-19T01:05:02;97022.72;;;18.80;nan
12146;BME280;6136;47.032;15.398;2022-08-19T01:07:30;97027.56;;;18.77;nan
12146;BME280;6136;47.032;15.398;2022-08-19T01:10:03;97033.56;;;18.71;nan
12146;BME280;6136;47.032;15.398;2022-08-19T01:12:31;97040.09;;;18.68;nan
12146;BME280;6136;47.032;15.398;2022-08-19T01:15:00;97045.78;;;18.65;nan
12146;BME280;6136;47.032;15.398;2022-08-19T01:17:30;97058.22;;;18.66;nan
12146;BME280;6136;47.032;15.398;2022-08-19T01:19:58;97038.03;;;18.62;nan
12146;BME280;6136;47.032;15.398;2022-08-19T01:22:30;97014.53;;;18.56;nan
12146;BME280;6136;47.032;15.398;2022-08-19T01:25:00;97024.72;;;18.52;nan
12146;BME280;6136;47.032;15.398;2022-08-19T01:27:37;97019.03;;;18.55;nan
12146;BME280;6136;47.032;15.398;2022-08-19T01:30:12;97024.03;;;18.50;nan
12146;BME280;6136;47.032;15.398;2022-08-19T01:32:40;97019.34;;;18.52;nan
12146;BME280;6136;47.032;15.398;2022-08-19T01:35:11;97006.09;;;18.51;nan
12146;BME280;6136;47.032;15.398;2022-08-19T01:37:47;97009.78;;;18.50;nan
12146;BME280;6136;47.032;15.398;2022-08-19T01:40:16;96998.50;;;18.46;nan
12146;BME280;6136;47.032;15.398;2022-08-19T01:42:47;96987.09;;;18.44;nan
12146;BME280;6136;47.032;15.398;2022-08-19T01:45:15;96966.84;;;18.50;nan
12146;BME280;6136;47.032;15.398;2022-08-19T01:47:44;96950.75;;;18.50;nan
12146;BME280;6136;47.032;15.398;2022-08-19T01:50:21;96937.16;;;18.51;nan
12146;BME280;6136;47.032;15.398;2022-08-19T01:52:51;96928.28;;;18.51;nan
12146;BME280;6136;47.032;15.398;2022-08-19T01:55:24;96911.78;;;18.46;nan
12146;BME280;6136;47.032;15.398;2022-08-19T01:57:58;96915.53;;;18.53;nan
12146;BME280;6136;47.032;15.398;2022-08-19T02:00:30;96928.28;;;18.51;nan
12146;BME280;6136;47.032;15.398;2022-08-19T02:02:59;96943.38;;;18.52;nan
12146;BME280;6136;47.032;15.398;2022-08-19T02:05:27;96936.72;;;18.56;nan
12146;BME280;6136;47.032;15.398;2022-08-19T02:07:57;96950.81;;;18.58;nan
12146;BME280;6136;47.032;15.398;2022-08-19T02:10:25;96948.41;;;18.55;nan
12146;BME280;6136;47.032;15.398;2022-08-19T02:12:54;96934.63;;;18.50;nan
12146;BME280;6136;47.032;15.398;2022-08-19T02:15:22;96933.25;;;18.46;nan
12146;BME280;6136;47.032;15.398;2022-08-19T02:17:51;96927.44;;;18.50;nan
12146;BME280;6136;47.032;15.398;2022-08-19T02:20:19;96927.91;;;18.46;nan
12146;BME280;6136;47.032;15.398;2022-08-19T02:22:48;96924.25;;;18.55;nan
12146;BME280;6136;47.032;15.398;2022-08-19T02:25:17;96909.00;;;18.55;nan
12146;BME280;6136;47.032;15.398;2022-08-19T02:27:46;96908.66;;;18.50;nan
12146;BME280;6136;47.032;15.398;2022-08-19T02:30:15;96900.44;;;18.52;nan
12146;BME280;6136;47.032;15.398;2022-08-19T02:32:43;96917.47;;;18.69;nan
12146;BME280;6136;47.032;15.398;2022-08-19T02:35:13;96919.34;;;18.76;nan
12146;BME280;6136;47.032;15.398;2022-08-19T02:37:42;96916.34;;;18.79;nan
12146;BME280;6136;47.032;15.398;2022-08-19T02:40:30;96927.25;;;18.78;nan
12146;BME280;6136;47.032;15.398;2022-08-19T02:43:01;96931.28;;;18.74;nan
12146;BME280;6136;47.032;15.398;2022-08-19T02:45:31;96928.75;;;18.72;nan
12146;BME280;6136;47.032;15.398;2022-08-19T02:47:59;96914.31;;;18.73;nan
12146;BME280;6136;47.032;15.398;2022-08-19T02:50:28;96919.34;;;18.76;nan
12146;BME280;6136;47.032;15.398;2022-08-19T02:52:56;96913.97;;;18.76;nan
12146;BME280;6136;47.032;15.398;2022-08-19T02:55:24;96921.56;;;18.81;nan
12146;BME280;6136;47.032;15.398;2022-08-19T02:57:53;96938.81;;;18.78;nan
12146;BME280;6136;47.032;15.398;2022-08-19T03:00:21;96932.41;;;18.71;nan
12146;BME280;6136;47.032;15.398;2022-08-19T03:02:50;96931.72;;;18.69;nan
12146;BME280;6136;47.032;15.398;2022-08-19T03:05:19;96933.06;;;18.65;nan
12146;BME280;6136;47.032;15.398;2022-08-19T03:07:50;96923.19;;;18.66;nan
12146;BME280;6136;47.032;15.398;2022-08-19T03:10:19;96922.66;;;18.62;nan
12146;BME280;6136;47.032;15.398;2022-08-19T03:12:47;96931.69;;;18.61;nan
12146;BME280;6136;47.032;15.398;2022-08-19T03:15:16;96926.94;;;18.55;nan
12146;BME280;6136;47.032;15.398;2022-08-19T03:17:44;96933.25;;;18.46;nan
12146;BME280;6136;47.032;15.398;2022-08-19T03:20:12;96932.25;;;18.47;nan
12146;BME280;6136;47.032;15.398;2022-08-19T03:22:40;96928.66;;;18.56;nan
12146;BME280;6136;47.032;15.398;2022-08-19T03:25:09;96939.00;;;18.51;nan
12146;BME280;6136;47.032;15.398;2022-08-19T03:27:38;96932.13;;;18.48;nan
12146;BME280;6136;47.032;15.398;2022-08-19T03:30:07;96928.13;;;18.52;nan
12146;BME280;6136;47.032;15.398;2022-08-19T03:32:38;96934.88;;;18.56;nan
12146;BME280;6136;47.032;15.398;2022-08-19T03:35:10;96943.59;;;18.58;nan
12146;BME280;6136;47.032;15.398;2022-08-19T03:37:39;96970.25;;;18.60;nan
12146;BME280;6136;47.032;15.398;2022-08-19T03:40:08;96991.06;;;18.58;nan
12146;BME280;6136;47.032;15.398;2022-08-19T03:42:40;97010.38;;;18.61;nan
12146;BME280;6136;47.032;15.398;2022-08-19T03:45:15;97031.69;;;18.63;nan
12146;BME280;6136;47.032;15.398;2022-08-19T03:47:44;97046.47;;;18.67;nan
12146;BME280;6136;47.032;15.398;2022-08-19T03:50:13;97049.56;;;18.80;nan
12146;BME280;6136;47.032;15.398;2022-08-19T03:52:41;97066.94;;;18.94;nan
12146;BME280;6136;47.032;15.398;2022-08-19T03:55:11;97090.22;;;19.19;nan
12146;BME280;6136;47.032;15.398;2022-08-19T03:57:39;97105.91;;;19.32;nan
12146;BME280;6136;47.032;15.398;2022-08-19T04:00:08;97095.63;;;19.27;nan
12146;BME280;6136;47.032;15.398;2022-08-19T04:02:40;97046.75;;;19.24;nan
12146;BME280;6136;47.032;15.398;2022-08-19T04:05:10;97032.66;;;19.22;nan
12146;BME280;6136;47.032;15.398;2022-08-19T04:07:39;97042.94;;;19.26;nan
12146;BME280;6136;47.032;15.398;2022-08-19T04:10:08;97042.75;;;19.28;nan
12146;BME280;6136;47.032;15.398;2022-08-19T04:12:36;97045.66;;;19.43;nan
12146;BME280;6136;47.032;15.398;2022-08-19T04:15:06;97044.50;;;19.45;nan
12146;BME280;6136;47.032;15.398;2022-08-19T04:17:34;97050.97;;;19.68;nan
12146;BME280;6136;47.032;15.398;2022-08-19T04:20:03;97055.03;;;19.81;nan
12146;BME280;6136;47.032;15.398;2022-08-19T04:22:34;97054.22;;;20.04;nan
12146;BME280;6136;47.032;15.398;2022-08-19T04:25:03;97040.25;;;20.17;nan
12146;BME280;6136;47.032;15.398;2022-08-19T04:27:31;97035.41;;;20.29;nan
12146;BME280;6136;47.032;15.398;2022-08-19T04:29:59;97023.81;;;20.52;nan
12146;BME280;6136;47.032;15.398;2022-08-19T04:32:28;97026.59;;;20.83;nan
12146;BME280;6136;47.032;15.398;2022-08-19T04:34:58;97012.72;;;21.11;nan
12146;BME280;6136;47.032;15.398;2022-08-19T04:37:44;96998.03;;;21.21;nan
12146;BME280;6136;47.032;15.398;2022-08-19T04:40:12;96986.53;;;21.27;nan
12146;BME280;6136;47.032;15.398;2022-08-19T04:42:58;96991.72;;;21.37;nan
12146;BME280;6136;47.032;15.398;2022-08-19T04:45:27;96985.09;;;21.48;nan
12146;BME280;6136;47.032;15.398;2022-08-19T04:48:05;96991.50;;;21.47;nan
12146;BME280;6136;47.032;15.398;2022-08-19T04:50:45;96985.41;;;21.53;nan
12146;BME280;6136;47.032;15.398;2022-08-19T04:53:15;96990.94;;;21.59;nan
12146;BME280;6136;47.032;15.398;2022-08-19T04:55:43;96992.59;;;21.60;nan
12146;BME280;6136;47.032;15.398;2022-08-19T04:58:11;97009.75;;;21.67;nan
12146;BME280;6136;47.032;15.398;2022-08-19T05:00:39;97014.81;;;21.71;nan
12146;BME280;6136;47.032;15.398;2022-08-19T05:03:08;97013.91;;;21.78;nan
12146;BME280;6136;47.032;15.398;2022-08-19T05:05:39;97012.03;;;21.79;nan
12146;BME280;6136;47.032;15.398;2022-08-19T05:08:10;97020.31;;;21.77;nan
12146;BME280;6136;47.032;15.398;2022-08-19T05:10:40;97022.13;;;21.85;nan
12146;BME280;6136;47.032;15.398;2022-08-19T05:13:08;97033.38;;;21.88;nan
12146;BME280;6136;47.032;15.398;2022-08-19T05:15:37;97051.53;;;22.02;nan
12146;BME280;6136;47.032;15.398;2022-08-19T05:18:05;97053.81;;;22.14;nan
12146;BME280;6136;47.032;15.398;2022-08-19T05:20:51;97049.66;;;22.03;nan
12146;BME280;6136;47.032;15.398;2022-08-19T05:23:36;97051.75;;;22.16;nan
12146;BME280;6136;47.032;15.398;2022-08-19T05:26:05;97057.81;;;22.18;nan
12146;BME280;6136;47.032;15.398;2022-08-19T05:28:35;97058.72;;;22.10;nan
12146;BME280;6136;47.032;15.398;2022-08-19T05:31:04;97067.59;;;22.19;nan
12146;BME280;6136;47.032;15.398;2022-08-19T05:33:32;97061.25;;;22.12;nan
12146;BME280;6136;47.032;15.398;2022-08-19T05:36:01;97047.41;;;22.15;nan
12146;BME280;6136;47.032;15.398;2022-08-19T05:38:30;97044.75;;;22.06;nan
12146;BME280;6136;47.032;15.398;2022-08-19T05:40:58;97042.59;;;22.25;nan
12146;BME280;6136;47.032;15.398;2022-08-19T05:43:27;97041.56;;;22.26;nan
12146;BME280;6136;47.032;15.398;2022-08-19T05:45:55;97046.84;;;22.42;nan
12146;BME280;6136;47.032;15.398;2022-08-19T05:48:23;97039.91;;;22.62;nan
12146;BME280;6136;47.032;15.398;2022-08-19T05:50:53;97044.28;;;22.63;nan
12146;BME280;6136;47.032;15.398;2022-08-19T05:53:21;97058.44;;;22.65;nan
12146;BME280;6136;47.032;15.398;2022-08-19T05:55:49;97064.72;;;22.43;nan
12146;BME280;6136;47.032;15.398;2022-08-19T05:58:17;97075.75;;;22.56;nan
12146;BME280;6136;47.032;15.398;2022-08-19T06:00:46;97076.50;;;22.65;nan
12146;BME280;6136;47.032;15.398;2022-08-19T06:03:15;97072.47;;;22.61;nan
12146;BME280;6136;47.032;15.398;2022-08-19T06:05:43;97084.56;;;22.73;nan
12146;BME280;6136;47.032;15.398;2022-08-19T06:08:17;97079.31;;;22.71;nan
12146;BME280;6136;47.032;15.398;2022-08-19T06:10:45;97074.81;;;22.87;nan
12146;BME280;6136;47.032;15.398;2022-08-19T06:13:13;97076.50;;;22.88;nan
12146;BME280;6136;47.032;15.398;2022-08-19T06:15:41;97078.09;;;22.97;nan
12146;BME280;6136;47.032;15.398;2022-08-19T06:18:13;97071.66;;;23.12;nan
12146;BME280;6136;47.032;15.398;2022-08-19T06:20:42;97071.13;;;23.02;nan
12146;BME280;6136;47.032;15.398;2022-08-19T06:23:21;97065.13;;;23.07;nan
12146;BME280;6136;47.032;15.398;2022-08-19T06:25:49;97067.47;;;23.10;nan
12146;BME280;6136;47.032;15.398;2022-08-19T06:28:17;97051.63;;;23.07;nan
12146;BME280;6136;47.032;15.398;2022-08-19T06:30:46;97052.19;;;23.17;nan
12146;BME280;6136;47.032;15.398;2022-08-19T06:33:15;97067.88;;;23.51;nan
12146;BME280;6136;47.032;15.398;2022-08-19T06:35:44;97060.84;;;23.71;nan
12146;BME280;6136;47.032;15.398;2022-08-19T06:38:12;97044.44;;;23.94;nan
12146;BME280;6136;47.032;15.398;2022-08-19T06:40:40;97052.50;;;24.09;nan
12146;BME280;6136;47.032;15.398;2022-08-19T06:43:13;97047.19;;;24.15;nan
12146;BME280;6136;47.032;15.398;2022-08-19T06:45:42;97052.88;;;24.20;nan
12146;BME280;6136;47.032;15.398;2022-08-19T06:48:10;97057.75;;;24.31;nan
12146;BME280;6136;47.032;15.398;2022-08-19T06:50:40;97064.88;;;24.18;nan
12146;BME280;6136;47.032;15.398;2022-08-19T06:53:08;97055.66;;;24.27;nan
12146;BME280;6136;47.032;15.398;2022-08-19T06:55:36;97080.28;;;24.32;nan
12146;BME280;6136;47.032;15.398;2022-08-19T06:58:04;97085.78;;;24.60;nan
12146;BME280;6136;47.032;15.398;2022-08-19T07:00:33;97089.59;;;24.93;nan
12146;BME280;6136;47.032;15.398;2022-08-19T07:03:01;97096.81;;;25.07;nan
12146;BME280;6136;47.032;15.398;2022-08-19T07:05:39;97114.31;;;24.84;nan
12146;BME280;6136;47.032;15.398;2022-08-19T07:08:11;97105.31;;;24.83;nan
12146;BME280;6136;47.032;15.398;2022-08-19T07:10:43;97105.47;;;24.54;nan
12146;BME280;6136;47.032;15.398;2022-08-19T07:13:11;97114.91;;;24.36;nan
12146;BME280;6136;47.032;15.398;2022-08-19T07:15:40;97110.66;;;24.27;nan
12146;BME280;6136;47.032;15.398;2022-08-19T07:18:08;97116.84;;;24.21;nan
12146;BME280;6136;47.032;15.398;2022-08-19T07:20:37;97115.66;;;23.94;nan
12146;BME280;6136;47.032;15.398;2022-08-19T07:23:07;97111.19;;;23.87;nan
12146;BME280;6136;47.032;15.398;2022-08-19T07:25:36;97102.69;;;23.90;nan
12146;BME280;6136;47.032;15.398;2022-08-19T07:28:04;97101.97;;;23.81;nan
12146;BME280;6136;47.032;15.398;2022-08-19T07:30:36;97094.88;;;23.66;nan
12146;BME280;6136;47.032;15.398;2022-08-19T07:33:04;97085.31;;;23.63;nan
12146;BME280;6136;47.032;15.398;2022-08-19T07:35:33;97100.03;;;23.60;nan
12146;BME280;6136;47.032;15.398;2022-08-19T07:38:01;97094.38;;;23.55;nan
12146;BME280;6136;47.032;15.398;2022-08-19T07:40:31;97098.00;;;23.48;nan
12146;BME280;6136;47.032;15.398;2022-08-19T07:42:59;97102.06;;;23.44;nan
12146;BME280;6136;47.032;15.398;2022-08-19T07:45:28;97106.63;;;23.43;nan
12146;BME280;6136;47.032;15.398;2022-08-19T07:47:58;97106.44;;;23.30;nan
12146;BME280;6136;47.032;15.398;2022-08-19T07:50:27;97131.34;;;23.11;nan
12146;BME280;6136;47.032;15.398;2022-08-19T07:52:55;97130.47;;;22.96;nan
12146;BME280;6136;47.032;15.398;2022-08-19T07:55:25;97141.78;;;22.76;nan
12146;BME280;6136;47.032;15.398;2022-08-19T07:58:10;97137.19;;;22.54;nan
12146;BME280;6136;47.032;15.398;2022-08-19T08:00:39;97153.03;;;22.57;nan
12146;BME280;6136;47.032;15.398;2022-08-19T08:03:07;97165.03;;;22.32;nan
12146;BME280;6136;47.032;15.398;2022-08-19T08:05:36;97160.09;;;22.13;nan
12146;BME280;6136;47.032;15.398;2022-08-19T08:08:22;97157.09;;;22.08;nan
12146;BME280;6136;47.032;15.398;2022-08-19T08:11:10;97150.81;;;21.76;nan
12146;BME280;6136;47.032;15.398;2022-08-19T08:13:42;97151.50;;;21.70;nan
12146;BME280;6136;47.032;15.398;2022-08-19T08:16:11;97138.41;;;21.51;nan
12146;BME280;6136;47.032;15.398;2022-08-19T08:18:39;97111.00;;;21.39;nan
12146;BME280;6136;47.032;15.398;2022-08-19T08:21:09;97108.88;;;21.26;nan
12146;BME280;6136;47.032;15.398;2022-08-19T08:23:37;97100.72;;;21.35;nan
12146;BME280;6136;47.032;15.398;2022-08-19T08:26:05;97083.50;;;21.44;nan
12146;BME280;6136;47.032;15.398;2022-08-19T08:28:33;97107.81;;;21.36;nan
12146;BME280;6136;47.032;15.398;2022-08-19T08:31:02;97097.56;;;21.31;nan
12146;BME280;6136;47.032;15.398;2022-08-19T08:33:35;97103.63;;;21.33;nan
12146;BME280;6136;47.032;15.398;2022-08-19T08:36:04;97122.78;;;21.38;nan
12146;BME280;6136;47.032;15.398;2022-08-19T08:38:33;97089.28;;;21.41;nan
12146;BME280;6136;47.032;15.398;2022-08-19T08:41:10;97101.88;;;21.48;nan
12146;BME280;6136;47.032;15.398;2022-08-19T08:43:47;97110.75;;;21.57;nan
12146;BME280;6136;47.032;15.398;2022-08-19T08:46:22;97109.75;;;21.50;nan
12146;BME280;6136;47.032;15.398;2022-08-19T08:49:01;97091.72;;;21.89;nan
12146;BME280;6136;47.032;15.398;2022-08-19T08:51:37;97075.41;;;22.14;nan
12146;BME280;6136;47.032;15.398;2022-08-19T08:54:14;97086.22;;;22.14;nan
12146;BME280;6136;47.032;15.398;2022-08-19T08:56:44;97084.25;;;22.30;nan
12146;BME280;6136;47.032;15.398;2022-08-19T08:59:19;97081.59;;;22.82;nan
12146;BME280;6136;47.032;15.398;2022-08-19T09:01:49;97096.72;;;22.92;nan
12146;BME280;6136;47.032;15.398;2022-08-19T09:04:18;97098.81;;;23.19;nan
12146;BME280;6136;47.032;15.398;2022-08-19T09:06:51;97082.47;;;22.98;nan
12146;BME280;6136;47.032;15.398;2022-08-19T09:09:27;97111.63;;;22.88;nan
12146;BME280;6136;47.032;15.398;2022-08-19T09:12:05;97120.53;;;22.73;nan
12146;BME280;6136;47.032;15.398;2022-08-19T09:14:43;97148.41;;;22.74;nan
12146;BME280;6136;47.032;15.398;2022-08-19T09:17:19;97140.22;;;22.59;nan
12146;BME280;6136;47.032;15.398;2022-08-19T09:20:00;97138.16;;;22.61;nan
12146;BME280;6136;47.032;15.398;2022-08-19T09:22:31;97129.97;;;22.69;nan
12146;BME280;6136;47.032;15.398;2022-08-19T09:25:00;97103.22;;;22.82;nan
12146;BME280;6136;47.032;15.398;2022-08-19T09:27:28;97066.53;;;23.03;nan
12146;BME280;6136;47.032;15.398;2022-08-19T09:30:11;97041.22;;;23.48;nan
12146;BME280;6136;47.032;15.398;2022-08-19T09:32:41;97035.53;;;23.79;nan
12146;BME280;6136;47.032;15.398;2022-08-19T09:35:10;97047.78;;;23.96;nan
12146;BME280;6136;47.032;15.398;2022-08-19T09:37:39;97066.84;;;23.88;nan
12146;BME280;6136;47.032;15.398;2022-08-19T09:40:08;97094.03;;;24.52;nan
12146;BME280;6136;47.032;15.398;2022-08-19T09:42:37;97098.50;;;24.87;nan
12146;BME280;6136;47.032;15.398;2022-08-19T09:45:17;97095.22;;;24.70;nan
12146;BME280;6136;47.032;15.398;2022-08-19T09:47:50;97097.69;;;24.65;nan
12146;BME280;6136;47.032;15.398;2022-08-19T09:50:21;97084.47;;;24.56;nan
12146;BME280;6136;47.032;15.398;2022-08-19T09:52:50;97065.91;;;24.17;nan
12146;BME280;6136;47.032;15.398;2022-08-19T09:55:23;97060.41;;;24.25;nan
12146;BME280;6136;47.032;15.398;2022-08-19T09:57:59;97118.03;;;24.19;nan
12146;BME280;6136;47.032;15.398;2022-08-19T10:00:27;97117.19;;;24.18;nan
12146;BME280;6136;47.032;15.398;2022-08-19T10:02:57;97107.13;;;24.12;nan
12146;BME280;6136;47.032;15.398;2022-08-19T10:05:25;97120.41;;;24.07;nan
12146;BME280;6136;47.032;15.398;2022-08-19T10:08:10;97129.91;;;24.03;nan
12146;BME280;6136;47.032;15.398;2022-08-19T10:10:40;97116.03;;;23.91;nan
12146;BME280;6136;47.032;15.398;2022-08-19T10:13:14;97109.13;;;23.89;nan
12146;BME280;6136;47.032;15.398;2022-08-19T10:15:43;97118.56;;;23.93;nan
12146;BME280;6136;47.032;15.398;2022-08-19T10:18:15;97117.25;;;23.89;nan
12146;BME280;6136;47.032;15.398;2022-08-19T10:20:45;97103.72;;;23.89;nan
12146;BME280;6136;47.032;15.398;2022-08-19T10:23:17;97101.09;;;23.95;nan
12146;BME280;6136;47.032;15.398;2022-08-19T10:25:45;97104.38;;;23.91;nan
12146;BME280;6136;47.032;15.398;2022-08-19T10:28:14;97103.19;;;23.64;nan
12146;BME280;6136;47.032;15.398;2022-08-19T10:30:45;97104.59;;;23.75;nan
12146;BME280;6136;47.032;15.398;2022-08-19T10:33:14;97119.63;;;23.77;nan
12146;BME280;6136;47.032;15.398;2022-08-19T10:36:05;97130.44;;;23.77;nan
12146;BME280;6136;47.032;15.398;2022-08-19T10:38:34;97129.88;;;23.82;nan
12146;BME280;6136;47.032;15.398;2022-08-19T10:41:10;97138.19;;;24.16;nan
12146;BME280;6136;47.032;15.398;2022-08-19T10:43:39;97134.53;;;24.60;nan
12146;BME280;6136;47.032;15.398;2022-08-19T10:46:08;97139.44;;;25.48;nan
12146;BME280;6136;47.032;15.398;2022-08-19T10:48:42;97151.97;;;25.83;nan
12146;BME280;6136;47.032;15.398;2022-08-19T10:51:11;97139.50;;;25.96;nan
12146;BME280;6136;47.032;15.398;2022-08-19T10:53:57;97131.00;;;26.12;nan
12146;BME280;6136;47.032;15.398;2022-08-19T10:56:26;97127.63;;;26.03;nan
12146;BME280;6136;47.032;15.398;2022-08-19T10:59:11;97120.66;;;25.87;nan
12146;BME280;6136;47.032;15.398;2022-08-19T11:01:42;97107.75;;;25.55;nan
12146;BME280;6136;47.032;15.398;2022-08-19T11:04:12;97099.75;;;25.81;nan
12146;BME280;6136;47.032;15.398;2022-08-19T11:06:45;97096.69;;;25.98;nan
12146;BME280;6136;47.032;15.398;2022-08-19T11:09:14;97087.84;;;26.30;nan
12146;BME280;6136;47.032;15.398;2022-08-19T11:11:43;97068.47;;;26.59;nan
12146;BME280;6136;47.032;15.398;2022-08-19T11:14:13;97082.88;;;27.32;nan
12146;BME280;6136;47.032;15.398;2022-08-19T11:16:42;97121.97;;;27.51;nan
12146;BME280;6136;47.032;15.398;2022-08-19T11:19:12;97146.53;;;28.53;nan
12146;BME280;6136;47.032;15.398;2022-08-19T11:21:44;97147.66;;;29.40;nan
12146;BME280;6136;47.032;15.398;2022-08-19T11:24:15;97154.63;;;29.29;nan
12146;BME280;6136;47.032;15.398;2022-08-19T11:26:44;97144.91;;;28.84;nan
12146;BME280;6136;47.032;15.398;2022-08-19T11:29:13;97110.53;;;28.00;nan
12146;BME280;6136;47.032;15.398;2022-08-19T11:31:43;97113.41;;;27.48;nan
12146;BME280;6136;47.032;15.398;2022-08-19T11:34:16;97139.81;;;27.01;nan
12146;BME280;6136;47.032;15.398;2022-08-19T11:36:45;97142.22;;;26.50;nan
12146;BME280;6136;47.032;15.398;2022-08-19T11:39:17;97124.66;;;26.46;nan
12146;BME280;6136;47.032;15.398;2022-08-19T11:41:45;97123.22;;;26.56;nan
12146;BME280;6136;47.032;15.398;2022-08-19T11:44:14;97123.03;;;26.84;nan
12146;BME280;6136;47.032;15.398;2022-08-19T11:46:44;97118.88;;;27.15;nan
12146;BME280;6136;47.032;15.398;2022-08-19T11:49:16;97119.16;;;27.91;nan
12146;BME280;6136;47.032;15.398;2022-08-19T11:51:46;97120.03;;;28.99;nan
12146;BME280;6136;47.032;15.398;2022-08-19T11:54:16;97109.59;;;29.63;nan
12146;BME280;6136;47.032;15.398;2022-08-19T11:56:45;97097.75;;;29.51;nan
12146;BME280;6136;47.032;15.398;2022-08-19T11:59:15;97091.47;;;29.26;nan
12146;BME280;6136;47.032;15.398;2022-08-19T12:01:43;97086.34;;;29.36;nan
12146;BME280;6136;47.032;15.398;2022-08-19T12:04:12;97079.31;;;30.01;nan
12146;BME280;6136;47.032;15.398;2022-08-19T12:06:41;97078.44;;;30.79;nan
12146;BME280;6136;47.032;15.398;2022-08-19T12:09:10;97074.72;;;31.38;nan
12146;BME280;6136;47.032;15.398;2022-08-19T12:11:38;97072.91;;;30.97;nan
12146;BME280;6136;47.032;15.398;2022-08-19T12:14:10;97079.06;;;30.21;nan
12146;BME280;6136;47.032;15.398;2022-08-19T12:16:40;97059.72;;;29.50;nan
12146;BME280;6136;47.032;15.398;2022-08-19T12:19:16;97059.06;;;29.36;nan
12146;BME280;6136;47.032;15.398;2022-08-19T12:21:49;97055.41;;;29.42;nan
12146;BME280;6136;47.032;15.398;2022-08-19T12:24:18;97049.66;;;30.46;nan
12146;BME280;6136;47.032;15.398;2022-08-19T12:26:50;97038.16;;;31.33;nan
12146;BME280;6136;47.032;15.398;2022-08-19T12:29:20;97038.22;;;32.69;nan
12146;BME280;6136;47.032;15.398;2022-08-19T12:31:50;97045.56;;;34.35;nan
12146;BME280;6136;47.032;15.398;2022-08-19T12:34:18;97031.72;;;33.81;nan
12146;BME280;6136;47.032;15.398;2022-08-19T12:36:48;97034.91;;;33.01;nan
12146;BME280;6136;47.032;15.398;2022-08-19T12:39:17;97033.72;;;34.12;nan
12146;BME280;6136;47.032;15.398;2022-08-19T12:41:45;97041.94;;;34.29;nan
12146;BME280;6136;47.032;15.398;2022-08-19T12:44:20;97025.06;;;33.38;nan
12146;BME280;6136;47.032;15.398;2022-08-19T12:46:55;97044.63;;;35.10;nan
12146;BME280;6136;47.032;15.398;2022-08-19T12:49:23;97047.34;;;34.02;nan
12146;BME280;6136;47.032;15.398;2022-08-19T12:52:13;97046.97;;;36.22;nan
12146;BME280;6136;47.032;15.398;2022-08-19T12:54:48;97044.66;;;35.99;nan
12146;BME280;6136;47.032;15.398;2022-08-19T12:57:21;97045.94;;;36.64;nan
12146;BME280;6136;47.032;15.398;2022-08-19T12:59:57;97051.81;;;37.28;nan
12146;BME280;6136;47.032;15.398;2022-08-19T13:02:25;97049.88;;;37.39;nan
12146;BME280;6136;47.032;15.398;2022-08-19T13:04:54;97046.75;;;35.76;nan
12146;BME280;6136;47.032;15.398;2022-08-19T13:07:23;97048.03;;;33.15;nan
12146;BME280;6136;47.032;15.398;2022-08-19T13:09:51;97053.38;;;34.21;nan
12146;BME280;6136;47.032;15.398;2022-08-19T13:12:20;97044.47;;;35.68;nan
12146;BME280;6136;47.032;15.398;2022-08-19T13:14:50;97036.09;;;34.74;nan
12146;BME280;6136;47.032;15.398;2022-08-19T13:17:18;97025.47;;;33.69;nan
12146;BME280;6136;47.032;15.398;2022-08-19T13:19:47;97024.53;;;32.41;nan
12146;BME280;6136;47.032;15.398;2022-08-19T13:22:15;97025.28;;;31.68;nan
12146;BME280;6136;47.032;15.398;2022-08-19T13:24:45;97029.03;;;30.51;nan
12146;BME280;6136;47.032;15.398;2022-08-19T13:27:13;97021.81;;;30.68;nan
12146;BME280;6136;47.032;15.398;2022-08-19T13:29:41;97012.47;;;31.10;nan
12146;BME280;6136;47.032;15.398;2022-08-19T13:32:26;97018.09;;;30.21;nan
12146;BME280;6136;47.032;15.398;2022-08-19T13:35:14;97009.75;;;29.86;nan
12146;BME280;6136;47.032;15.398;2022-08-19T13:37:43;97002.69;;;31.14;nan
12146;BME280;6136;47.032;15.398;2022-08-19T13:40:17;97012.47;;;33.04;nan
12146;BME280;6136;47.032;15.398;2022-08-19T13:42:48;97004.47;;;33.02;nan